createdAt,value
2019-04-10T00:01:53.033Z,93.90
2019-04-10T00:04:21.141Z,94.00
2019-04-10T00:06:48.649Z,94.00
2019-04-10T00:09:16.909Z,94.00
2019-04-10T00:11:47.252Z,94.40
2019-04-10T00:14:16.388Z,94.20
2019-04-10T00:16:46.706Z,94.40
2019-04-10T00:19:14.875Z,94.10
2019-04-10T00:24:40.726Z,94.10
2019-04-10T00:27:08.270Z,94.20
2019-04-10T00:29:36.291Z,94.20
2019-04-10T00:32:04.323Z,94.30
2019-04-10T00:34:31.901Z,94.30
2019-04-10T00:37:00.359Z,94.40
2019-04-10T00:39:28.682Z,94.40
2019-04-10T00:41:56.786Z,94.50
2019-04-10T00:44:24.277Z,94.40
2019-04-10T00:46:52.574Z,94.30
2019-04-10T00:49:20.309Z,94.40
2019-04-10T00:51:47.855Z,94.30
2019-04-10T00:54:16.094Z,94.60
2019-04-10T00:56:43.625Z,94.50
2019-04-10T00:59:12.120Z,94.50
2019-04-10T01:01:40.245Z,94.50
2019-04-10T01:04:08.188Z,94.40
2019-04-10T01:06:35.792Z,94.60
2019-04-10T01:09:07.063Z,94.50
2019-04-10T01:11:36.047Z,94.50
2019-04-10T01:14:03.755Z,94.50
2019-04-10T01:16:31.353Z,94.50
2019-04-10T01:18:59.506Z,94.60
2019-04-10T01:21:27.000Z,94.80
2019-04-10T01:23:55.323Z,94.90
2019-04-10T01:26:23.283Z,94.80
2019-04-10T01:28:51.605Z,94.70
2019-04-10T01:31:20.060Z,94.80
2019-04-10T01:33:47.815Z,94.80
2019-04-10T01:36:15.185Z,94.80
2019-04-10T01:38:43.772Z,94.70
2019-04-10T01:41:11.918Z,94.90
2019-04-10T01:43:39.398Z,94.90
2019-04-10T01:46:06.821Z,94.80
2019-04-10T01:48:34.540Z,94.90
2019-04-10T01:51:01.986Z,95.00
2019-04-10T01:53:30.291Z,94.90
2019-04-10T01:55:57.784Z,95.00
2019-04-10T01:58:25.374Z,95.10
2019-04-10T02:00:58.132Z,95.20
2019-04-10T02:03:25.894Z,95.20
2019-04-10T02:05:54.593Z,95.20
2019-04-10T02:08:23.612Z,95.50
2019-04-10T02:10:52.244Z,95.30
2019-04-10T02:13:19.780Z,95.30
2019-04-10T02:15:47.332Z,95.40
2019-04-10T02:18:14.844Z,95.60
2019-04-10T02:20:43.129Z,95.60
2019-04-10T02:23:10.752Z,95.40
2019-04-10T02:25:39.089Z,95.50
2019-04-10T02:28:06.899Z,95.40
2019-04-10T02:30:36.912Z,95.60
2019-04-10T02:33:04.372Z,95.60
2019-04-10T02:35:33.856Z,95.80
2019-04-10T02:38:22.829Z,95.80
2019-04-10T02:40:31.085Z,96.20
2019-04-10T02:42:59.050Z,96.00
2019-04-10T02:45:27.062Z,96.00
2019-04-10T02:47:55.153Z,96.10
2019-04-10T02:50:22.690Z,96.00
2019-04-10T02:52:50.927Z,96.20
2019-04-10T02:55:18.801Z,96.30
2019-04-10T02:57:46.697Z,96.40
2019-04-10T03:00:14.663Z,96.50
2019-04-10T03:02:42.197Z,96.60
2019-04-10T03:05:09.908Z,96.60
2019-04-10T03:07:37.506Z,96.70
2019-04-10T03:10:15.206Z,96.70
2019-04-10T03:12:36.387Z,96.80
2019-04-10T03:15:07.835Z,96.90
2019-04-10T03:17:36.636Z,96.80
2019-04-10T03:20:05.753Z,96.90
2019-04-10T03:22:33.200Z,97.00
2019-04-10T03:25:00.692Z,97.00
2019-04-10T03:27:28.362Z,97.20
2019-04-10T03:29:56.070Z,97.40
2019-04-10T03:32:58.378Z,97.50
2019-04-10T03:35:34.626Z,97.70
2019-04-10T03:38:02.150Z,97.70
2019-04-10T03:40:29.850Z,97.70
2019-04-10T03:42:57.313Z,97.70
2019-04-10T03:45:24.791Z,97.70
2019-04-10T03:47:52.319Z,97.70
2019-04-10T03:50:19.763Z,97.80
2019-04-10T03:52:47.130Z,97.70
2019-04-10T03:55:14.585Z,97.90
2019-04-10T03:57:42.816Z,97.80
2019-04-10T04:00:10.688Z,98.20
2019-04-10T04:02:38.429Z,98.00
2019-04-10T04:05:06.604Z,97.80
2019-04-10T04:07:36.773Z,97.80
2019-04-10T04:10:04.825Z,97.80
2019-04-10T04:12:32.844Z,97.70
2019-04-10T04:15:02.057Z,97.70
2019-04-10T04:17:30.460Z,97.60
2019-04-10T04:19:58.789Z,97.60
2019-04-10T04:22:26.405Z,97.50
2019-04-10T04:24:53.749Z,97.50
2019-04-10T04:27:21.626Z,97.50
2019-04-10T04:29:49.861Z,97.40
2019-04-10T04:32:19.595Z,97.30
2019-04-10T04:34:47.491Z,97.30
2019-04-10T04:37:14.935Z,97.10
2019-04-10T04:39:43.277Z,97.10
2019-04-10T04:42:11.006Z,97.10
2019-04-10T04:44:38.506Z,97.00
2019-04-10T04:47:06.336Z,97.00
2019-04-10T04:49:35.725Z,96.70
2019-04-10T04:52:03.421Z,96.60
2019-04-10T04:54:31.028Z,96.50
2019-04-10T04:56:58.474Z,96.50
2019-04-10T04:59:26.163Z,96.30
2019-04-10T05:01:55.001Z,96.00
2019-04-10T05:04:25.103Z,95.80
2019-04-10T05:07:11.348Z,95.70
2019-04-10T05:09:40.575Z,95.60
2019-04-10T05:12:09.360Z,95.30
2019-04-10T05:14:37.771Z,95.20
2019-04-10T05:17:05.993Z,95.20
2019-04-10T05:19:34.079Z,95.30
2019-04-10T05:22:01.742Z,94.90
2019-04-10T05:24:30.052Z,94.70
2019-04-10T05:26:57.694Z,94.50
2019-04-10T05:29:25.140Z,94.40
2019-04-10T05:31:53.118Z,94.20
2019-04-10T05:34:22.003Z,93.90
2019-04-10T05:36:49.857Z,93.50
2019-04-10T05:39:18.912Z,93.50
2019-04-10T05:41:47.090Z,92.90
2019-04-10T05:44:16.536Z,92.60
2019-04-10T05:46:45.229Z,92.50
2019-04-10T05:49:14.879Z,92.00
2019-04-10T05:51:42.432Z,91.20
2019-04-10T05:54:10.580Z,91.00
2019-04-10T05:56:38.873Z,90.30
2019-04-10T05:59:08.561Z,88.80
2019-04-10T06:01:39.491Z,88.40
2019-04-10T06:04:05.536Z,88.70
2019-04-10T06:06:33.070Z,89.00
2019-04-10T06:09:00.710Z,88.70
2019-04-10T06:11:28.841Z,88.10
2019-04-10T06:13:57.415Z,88.00
2019-04-10T06:16:26.073Z,87.00
2019-04-10T06:18:53.623Z,85.60
2019-04-10T06:21:23.019Z,85.20
2019-04-10T06:23:51.752Z,85.40
2019-04-10T06:26:19.969Z,85.20
2019-04-10T06:28:48.506Z,83.90
2019-04-10T06:31:16.580Z,83.80
2019-04-10T06:33:44.551Z,84.50
2019-04-10T06:36:13.183Z,83.80
2019-04-10T06:38:41.226Z,82.30
2019-04-10T06:41:08.985Z,81.70
2019-04-10T06:43:37.178Z,79.60
2019-04-10T06:46:04.928Z,77.40
2019-04-10T06:48:32.398Z,75.10
2019-04-10T06:51:02.065Z,73.00
2019-04-10T06:53:29.710Z,70.80
2019-04-10T06:55:57.289Z,70.10
2019-04-10T06:58:25.491Z,68.20
2019-04-10T07:00:54.895Z,68.80
2019-04-10T07:03:23.133Z,67.30
2019-04-10T07:06:03.679Z,63.00
2019-04-10T07:08:24.392Z,61.00
2019-04-10T07:10:59.206Z,61.10
2019-04-10T07:13:23.847Z,59.70
2019-04-10T07:15:54.442Z,57.30
2019-04-10T07:18:21.983Z,57.20
2019-04-10T07:20:50.795Z,56.70
2019-04-10T07:23:24.198Z,55.70
2019-04-10T07:25:49.865Z,54.20
2019-04-10T07:28:17.884Z,53.40
2019-04-10T07:30:47.712Z,52.40
2019-04-10T07:33:16.990Z,50.90
2019-04-10T07:35:46.361Z,49.60
2019-04-10T07:38:14.011Z,49.20
2019-04-10T07:40:41.511Z,48.90
2019-04-10T07:43:11.082Z,49.60
2019-04-10T07:45:39.127Z,48.70
2019-04-10T07:48:08.611Z,48.50
2019-04-10T07:50:37.111Z,48.90
2019-04-10T07:53:04.864Z,48.80
2019-04-10T07:55:33.131Z,48.90
2019-04-10T07:58:00.752Z,47.90
2019-04-10T08:00:28.516Z,46.70
2019-04-10T08:02:57.463Z,44.70
2019-04-10T08:05:25.395Z,43.90
2019-04-10T08:07:54.920Z,43.60
2019-04-10T08:10:22.461Z,42.30
2019-04-10T08:12:53.340Z,41.80
2019-04-10T08:15:19.210Z,41.30
2019-04-10T08:17:49.366Z,40.70
2019-04-10T08:20:17.611Z,39.70
2019-04-10T08:22:46.871Z,38.80
2019-04-10T08:25:16.324Z,38.00
2019-04-10T08:27:43.875Z,38.30
2019-04-10T08:30:11.712Z,36.90
2019-04-10T08:32:50.972Z,36.50
2019-04-10T08:35:09.227Z,34.80
2019-04-10T08:37:36.975Z,34.70
2019-04-10T08:40:07.514Z,34.20
2019-04-10T08:42:35.228Z,33.00
2019-04-10T08:45:03.430Z,32.80
2019-04-10T08:47:31.441Z,32.60
2019-04-10T08:49:59.009Z,32.00
2019-04-10T08:52:26.781Z,32.20
2019-04-10T08:54:54.420Z,31.90
2019-04-10T08:57:22.642Z,31.70
2019-04-10T08:59:50.110Z,31.70
2019-04-10T09:02:18.002Z,31.30
2019-04-10T09:04:45.509Z,31.50
2019-04-10T09:07:13.750Z,32.60
2019-04-10T09:09:42.049Z,33.90
2019-04-10T09:12:11.572Z,35.30
2019-04-10T09:14:39.219Z,36.50
2019-04-10T09:17:07.045Z,37.30
2019-04-10T09:19:36.163Z,39.00
2019-04-10T09:22:04.230Z,40.50
2019-04-10T09:24:31.573Z,42.30
2019-04-10T09:26:59.121Z,42.90
2019-04-10T09:29:28.020Z,43.30
2019-04-10T09:31:55.806Z,44.60
2019-04-10T09:34:23.841Z,45.00
2019-04-10T09:36:52.033Z,46.60
2019-04-10T09:39:39.296Z,47.90
2019-04-10T09:42:07.375Z,48.20
2019-04-10T09:44:35.845Z,48.40
2019-04-10T09:47:03.917Z,49.20
2019-04-10T09:49:38.924Z,48.80
2019-04-10T09:52:02.745Z,48.90
2019-04-10T09:54:34.886Z,49.30
2019-04-10T09:57:03.231Z,49.50
2019-04-10T09:59:36.036Z,49.60
2019-04-10T10:02:00.533Z,50.20
2019-04-10T10:04:29.200Z,49.90
2019-04-10T10:06:56.999Z,50.20
2019-04-10T10:09:26.309Z,50.00
2019-04-10T10:11:55.746Z,51.00
2019-04-10T10:14:23.996Z,50.90
2019-04-10T10:16:52.515Z,50.60
2019-04-10T10:19:20.386Z,50.60
2019-04-10T10:21:48.437Z,50.70
2019-04-10T10:24:16.315Z,50.40
2019-04-10T10:26:46.554Z,51.00
2019-04-10T10:29:14.070Z,50.60
2019-04-10T10:31:41.788Z,50.30
2019-04-10T10:34:10.263Z,49.90
2019-04-10T10:36:43.017Z,50.10
2019-04-10T10:39:17.296Z,50.50
2019-04-10T10:41:48.875Z,49.90
2019-04-10T10:44:17.375Z,50.10
2019-04-10T10:46:45.086Z,50.50
2019-04-10T10:49:12.992Z,50.60
2019-04-10T10:51:40.460Z,49.90
2019-04-10T10:54:10.588Z,49.40
2019-04-10T10:56:40.394Z,49.90
2019-04-10T10:59:09.255Z,49.70
2019-04-10T11:01:38.101Z,49.20
2019-04-10T11:04:06.761Z,49.00
2019-04-10T11:06:35.002Z,49.10
2019-04-10T11:09:08.355Z,48.10
2019-04-10T11:11:37.040Z,47.20
2019-04-10T11:14:05.927Z,46.70
2019-04-10T11:16:34.217Z,46.40
2019-04-10T11:19:02.766Z,46.70
2019-04-10T11:21:30.265Z,46.40
2019-04-10T11:23:58.453Z,45.30
2019-04-10T11:26:27.514Z,45.60
2019-04-10T11:28:55.702Z,45.40
2019-04-10T11:31:24.128Z,46.70
2019-04-10T11:33:55.641Z,47.10
2019-04-10T11:36:23.513Z,48.40
2019-04-10T11:38:51.970Z,49.00
2019-04-10T11:41:21.008Z,48.90
2019-04-10T11:43:50.131Z,49.20
2019-04-10T11:46:19.809Z,49.80
2019-04-10T11:48:49.305Z,49.40
2019-04-10T11:51:18.463Z,50.60
2019-04-10T11:56:17.972Z,50.00
2019-04-10T11:58:53.771Z,49.70
2019-04-10T12:01:14.241Z,50.30
2019-04-10T12:03:48.253Z,49.00
2019-04-10T12:06:15.141Z,48.60
2019-04-10T12:09:08.353Z,48.70
2019-04-10T12:11:18.775Z,48.60
2019-04-10T12:13:44.019Z,48.00
2019-04-10T12:16:12.643Z,48.50
2019-04-10T12:18:40.601Z,48.70
2019-04-10T12:21:09.423Z,49.40
2019-04-10T12:23:37.828Z,48.90
2019-04-10T12:26:07.444Z,50.00
2019-04-10T12:28:36.117Z,49.10
2019-04-10T12:31:04.039Z,48.60
2019-04-10T12:33:32.321Z,49.00
2019-04-10T12:36:00.404Z,48.40
2019-04-10T12:38:28.174Z,48.20
2019-04-10T12:40:57.190Z,47.60
2019-04-10T12:43:25.948Z,47.50
2019-04-10T12:45:54.834Z,47.80
2019-04-10T12:48:23.036Z,47.20
2019-04-10T12:50:50.705Z,47.50
2019-04-10T12:53:36.377Z,46.60
2019-04-10T12:56:04.174Z,46.10
2019-04-10T12:58:32.983Z,46.10
2019-04-10T13:01:00.688Z,46.10
2019-04-10T13:03:29.310Z,45.90
2019-04-10T13:05:57.737Z,45.60
2019-04-10T13:08:39.492Z,45.60
2019-04-10T13:10:54.734Z,44.80
2019-04-10T13:13:24.149Z,45.10
2019-04-10T13:15:51.956Z,46.00
2019-04-10T13:18:20.453Z,46.50
2019-04-10T13:20:48.335Z,45.80
2019-04-10T13:23:17.442Z,46.60
2019-04-10T13:25:55.480Z,47.20
2019-04-10T13:28:15.517Z,46.80
2019-04-10T13:30:48.899Z,47.50
2019-04-10T13:33:14.174Z,48.50
2019-04-10T13:35:42.083Z,48.40
2019-04-10T13:38:10.842Z,48.50
2019-04-10T13:40:40.168Z,48.40
2019-04-10T13:43:07.618Z,49.10
2019-04-10T13:45:35.367Z,49.20
2019-04-10T13:48:03.999Z,50.20
2019-04-10T13:50:31.453Z,50.60
2019-04-10T13:52:59.654Z,50.00
2019-04-10T13:55:28.462Z,49.30
2019-04-10T13:57:57.084Z,49.00
2019-04-10T14:00:35.583Z,49.00
2019-04-10T14:03:03.916Z,48.40
2019-04-10T14:05:33.663Z,49.20
2019-04-10T14:08:02.682Z,49.90
2019-04-10T14:10:31.939Z,51.10
2019-04-10T14:12:59.748Z,50.20
2019-04-10T14:15:27.412Z,50.00
2019-04-10T14:17:54.840Z,50.20
2019-04-10T14:20:23.555Z,50.20
2019-04-10T14:23:17.999Z,50.40
2019-04-10T14:26:11.889Z,51.50
2019-04-10T14:28:44.955Z,51.00
2019-04-10T14:31:21.769Z,51.20
2019-04-10T14:33:50.977Z,52.60
2019-04-10T14:36:20.840Z,52.00
2019-04-10T14:38:49.739Z,52.40
2019-04-10T14:41:17.971Z,51.70
2019-04-10T14:43:48.017Z,53.00
2019-04-10T14:46:17.451Z,53.00
2019-04-10T14:48:47.226Z,53.20
2019-04-10T14:51:16.414Z,53.70
2019-04-10T14:53:45.630Z,54.00
2019-04-10T14:56:14.421Z,54.00
2019-04-10T14:58:42.385Z,54.20
2019-04-10T15:01:09.952Z,55.00
2019-04-10T15:03:38.735Z,54.60
2019-04-10T15:06:07.026Z,55.00
2019-04-10T15:08:35.831Z,55.20
2019-04-10T15:11:06.711Z,56.20
2019-04-10T15:13:36.125Z,56.40
2019-04-10T15:16:07.143Z,56.40
2019-04-10T15:18:35.047Z,57.00
2019-04-10T15:21:02.857Z,56.70
2019-04-10T15:23:31.724Z,56.70
2019-04-10T15:25:59.686Z,56.50
2019-04-10T15:28:27.778Z,56.70
2019-04-10T15:30:55.320Z,56.30
2019-04-10T15:33:22.677Z,56.90
2019-04-10T15:35:51.208Z,56.90
2019-04-10T15:38:20.016Z,57.70
2019-04-10T15:40:47.650Z,58.30
2019-04-10T15:43:15.087Z,57.80
2019-04-10T15:45:42.671Z,56.90
2019-04-10T15:48:10.569Z,58.10
2019-04-10T15:50:41.424Z,57.70
2019-04-10T15:53:09.736Z,58.60
2019-04-10T15:55:38.177Z,58.70
2019-04-10T15:58:08.651Z,58.20
2019-04-10T16:00:37.135Z,58.60
2019-04-10T16:03:06.793Z,58.50
2019-04-10T16:05:34.580Z,59.10
2019-04-10T16:08:02.994Z,60.10
2019-04-10T16:10:49.909Z,59.30
2019-04-10T16:13:30.404Z,60.20
2019-04-10T16:16:05.129Z,60.70
2019-04-10T16:18:32.606Z,60.90
2019-04-10T16:21:02.390Z,61.90
2019-04-10T16:23:38.349Z,61.20
2019-04-10T16:26:08.979Z,61.80
2019-04-10T16:28:39.629Z,62.00
2019-04-10T16:31:07.554Z,62.10
2019-04-10T16:33:37.308Z,62.80
2019-04-10T16:36:05.303Z,62.30
2019-04-10T16:38:34.315Z,62.80
2019-04-10T16:41:02.684Z,63.50
2019-04-10T16:43:30.593Z,63.30
2019-04-10T16:45:59.450Z,64.50
2019-04-10T16:48:28.348Z,64.40
2019-04-10T16:50:56.270Z,64.50
2019-04-10T16:53:25.743Z,64.20
2019-04-10T16:55:55.223Z,64.00
2019-04-10T16:58:27.611Z,64.50
2019-04-10T17:00:58.048Z,66.40
2019-04-10T17:03:28.121Z,66.20
2019-04-10T17:05:57.706Z,66.40
2019-04-10T17:08:27.921Z,67.00
2019-04-10T17:10:56.860Z,66.00
2019-04-10T17:13:26.618Z,66.00
2019-04-10T17:15:55.589Z,66.00
2019-04-10T17:18:24.529Z,66.10
2019-04-10T17:20:55.046Z,66.20
2019-04-10T17:23:22.739Z,66.10
2019-04-10T17:25:50.754Z,67.10
2019-04-10T17:28:22.012Z,66.60
2019-04-10T17:30:49.736Z,67.90
2019-04-10T17:33:18.682Z,66.70
2019-04-10T17:35:47.570Z,67.00
2019-04-10T17:38:15.666Z,66.70
2019-04-10T17:40:48.772Z,67.70
2019-04-10T17:43:12.956Z,68.30
2019-04-10T17:45:40.706Z,68.20
2019-04-10T17:48:09.507Z,68.20
2019-04-10T17:50:37.401Z,68.40
2019-04-10T17:53:07.249Z,69.30
2019-04-10T17:55:35.702Z,69.00
2019-04-10T17:58:03.555Z,69.10
2019-04-10T18:00:37.590Z,68.40
2019-04-10T18:03:05.552Z,68.70
2019-04-10T18:05:33.154Z,68.80
2019-04-10T18:08:00.933Z,68.80
2019-04-10T18:10:41.123Z,68.70
2019-04-10T18:12:58.916Z,69.10
2019-04-10T18:15:26.505Z,69.20
2019-04-10T18:17:55.462Z,69.30
2019-04-10T18:20:24.083Z,69.40
2019-04-10T18:22:52.293Z,69.50
2019-04-10T18:25:20.604Z,69.60
2019-04-10T18:27:49.023Z,69.90
2019-04-10T18:30:16.906Z,69.80
2019-04-10T18:32:49.777Z,70.00
2019-04-10T18:35:18.393Z,70.90
2019-04-10T18:37:47.686Z,69.60
2019-04-10T18:40:15.582Z,70.60
2019-04-10T18:42:43.423Z,71.50
2019-04-10T18:45:11.310Z,75.80
2019-04-10T18:47:39.709Z,72.30
2019-04-10T18:50:09.778Z,71.50
2019-04-10T18:52:37.513Z,73.60
2019-04-10T18:55:06.065Z,72.00
2019-04-10T18:57:35.211Z,72.10
2019-04-10T19:00:36.614Z,72.80
2019-04-10T19:03:21.342Z,71.70
2019-04-10T19:05:52.025Z,73.30
2019-04-10T19:08:19.912Z,75.70
2019-04-10T19:10:47.607Z,72.80
2019-04-10T19:13:15.685Z,73.00
2019-04-10T19:15:44.667Z,73.30
2019-04-10T19:18:15.040Z,72.80
2019-04-10T19:20:43.951Z,72.80
2019-04-10T19:23:12.937Z,72.40
2019-04-10T19:25:40.882Z,73.10
2019-04-10T19:28:10.768Z,72.10
2019-04-10T19:30:43.563Z,71.60
2019-04-10T19:33:12.029Z,72.00
2019-04-10T19:35:43.356Z,72.10
2019-04-10T19:38:13.511Z,72.00
2019-04-10T19:40:41.464Z,72.20
2019-04-10T19:43:10.243Z,71.60
2019-04-10T19:45:39.777Z,71.40
2019-04-10T19:48:08.979Z,71.40
2019-04-10T19:50:37.305Z,72.20
2019-04-10T19:53:05.698Z,72.50
2019-04-10T19:55:33.479Z,72.10
2019-04-10T19:58:01.781Z,72.10
2019-04-10T20:00:34.958Z,73.70
2019-04-10T20:03:03.619Z,71.90
2019-04-10T20:05:31.648Z,72.40
2019-04-10T20:07:59.658Z,72.40
2019-04-10T20:10:27.623Z,72.60
2019-04-10T20:12:55.259Z,72.60
2019-04-10T20:15:22.936Z,71.90
2019-04-10T20:17:50.442Z,72.30
2019-04-10T20:20:17.861Z,72.10
2019-04-10T20:22:45.941Z,71.80
2019-04-10T20:25:14.397Z,73.00
2019-04-10T20:27:42.480Z,72.40
2019-04-10T20:30:11.918Z,72.60
2019-04-10T20:32:39.384Z,72.50
2019-04-10T20:35:07.808Z,72.60
2019-04-10T20:37:35.240Z,71.70
2019-04-10T20:40:03.482Z,71.50
2019-04-10T20:42:32.131Z,71.30
2019-04-10T20:45:00.885Z,71.60
2019-04-10T20:47:28.466Z,71.30
2019-04-10T20:49:56.000Z,71.20
2019-04-10T20:52:23.705Z,71.50
2019-04-10T20:54:51.155Z,71.50
2019-04-10T20:57:19.444Z,72.00
2019-04-10T20:59:47.160Z,71.30
2019-04-10T21:02:14.848Z,71.40
2019-04-10T21:04:53.506Z,71.40
2019-04-10T21:07:12.564Z,71.40
2019-04-10T21:09:40.149Z,71.50
2019-04-10T21:12:11.683Z,71.80
2019-04-10T21:14:43.897Z,71.80
2019-04-10T21:17:12.173Z,71.90
2019-04-10T21:19:40.963Z,71.20
2019-04-10T21:22:08.720Z,72.20
2019-04-10T21:24:36.100Z,72.00
2019-04-10T21:27:03.650Z,71.40
2019-04-10T21:29:52.709Z,71.70
2019-04-10T21:32:30.250Z,72.00
2019-04-10T21:35:02.100Z,72.00
2019-04-10T21:37:30.502Z,72.00
2019-04-10T21:39:58.376Z,72.10
2019-04-10T21:42:27.220Z,72.60
2019-04-10T21:44:55.478Z,72.40
2019-04-10T21:47:23.618Z,72.30
2019-04-10T21:49:50.968Z,72.80
2019-04-10T21:52:19.058Z,72.80
2019-04-10T21:54:51.144Z,72.40
2019-04-10T21:57:16.102Z,72.50
2019-04-10T21:59:45.492Z,72.70
2019-04-10T22:02:13.655Z,72.60
2019-04-10T22:04:41.437Z,73.30
2019-04-10T22:07:32.315Z,72.70
2019-04-10T22:10:12.008Z,72.90
2019-04-10T22:12:45.007Z,73.00
2019-04-10T22:15:26.968Z,73.10
2019-04-10T22:17:56.824Z,73.60
2019-04-10T22:20:25.667Z,73.50
2019-04-10T22:22:53.549Z,73.80
2019-04-10T22:25:21.593Z,73.70
2019-04-10T22:27:49.953Z,73.90
2019-04-10T22:30:18.971Z,74.30
2019-04-10T22:32:47.156Z,74.10
2019-04-10T22:35:15.238Z,74.00
2019-04-10T22:37:44.266Z,73.90
2019-04-10T22:40:13.000Z,74.10
2019-04-10T22:42:46.082Z,74.50
2019-04-10T22:45:25.733Z,74.30
2019-04-10T22:47:54.244Z,74.50
2019-04-10T22:50:23.151Z,74.50
2019-04-10T22:52:50.973Z,75.20
2019-04-10T22:55:19.701Z,74.90
2019-04-10T22:57:48.400Z,75.40
2019-04-10T23:00:22.278Z,75.00
2019-04-10T23:02:52.837Z,75.40
2019-04-10T23:05:21.026Z,75.40
2019-04-10T23:07:49.790Z,75.80
2019-04-10T23:10:19.063Z,75.80
2019-04-10T23:12:55.136Z,75.70
2019-04-10T23:15:17.503Z,75.80
2019-04-10T23:17:45.576Z,75.60
2019-04-10T23:20:14.357Z,76.10
2019-04-10T23:22:43.158Z,75.70
2019-04-10T23:25:11.963Z,76.00
2019-04-10T23:27:40.063Z,75.90
2019-04-10T23:30:12.867Z,75.90
2019-04-10T23:32:41.602Z,76.90
2019-04-10T23:35:10.241Z,77.20
2019-04-10T23:37:39.162Z,77.70
2019-04-10T23:40:08.400Z,78.10
2019-04-10T23:42:36.265Z,78.50
2019-04-10T23:45:05.156Z,78.60
2019-04-10T23:47:34.005Z,79.30
2019-04-10T23:50:04.020Z,79.00
2019-04-10T23:52:31.974Z,79.30
2019-04-10T23:54:59.731Z,79.50
2019-04-10T23:57:27.496Z,80.00
2019-04-10T23:59:55.106Z,80.40
